Time;durP1;ratioP1;P1;durP2;ratioP2;P2;SDS_P1;SDS_P2;PMS_P1;PMS_P2;Temp;Humidity;BMP_temperature;BMP_pressure;BME280_temperature;BME280_humidity;BME280_pressure;Samples;Min_cycle;Max_cycle;Signal;HPM_P1;HPM_P2
2023/06/27 00:02:00;;;;;;;7.93;2.28;;;20.50;18.60;;;;;;4986476;28;20207;-84
2023/06/27 00:04:28;;;;;;;4.00;2.40;;;20.50;18.60;;;;;;4981615;28;20222;-87
2023/06/27 00:06:56;;;;;;;7.78;2.30;;;20.50;19.10;;;;;;4976427;28;20662;-87
2023/06/27 00:09:23;;;;;;;3.47;1.98;;;20.40;19.00;;;;;;4980051;28;20204;-83
2023/06/27 00:11:51;;;;;;;6.05;2.50;;;20.40;19.00;;;;;;4986079;28;20211;-86
2023/06/27 00:14:19;;;;;;;5.07;2.30;;;20.30;19.00;;;;;;4986622;28;20204;-85
2023/06/27 00:16:47;;;;;;;4.82;2.05;;;20.30;18.60;;;;;;4985857;28;20200;-85
2023/06/27 00:19:14;;;;;;;5.72;2.33;;;20.30;19.30;;;;;;4985686;28;20263;-84
2023/06/27 00:21:41;;;;;;;3.70;2.13;;;20.30;18.70;;;;;;4983776;28;20208;-89
2023/06/27 00:24:10;;;;;;;3.70;2.42;;;20.30;19.00;;;;;;4980118;28;20690;-87
2023/06/27 00:26:37;;;;;;;5.30;2.50;;;20.30;18.60;;;;;;4983964;28;20203;-86
2023/06/27 00:29:04;;;;;;;4.07;2.30;;;20.30;18.40;;;;;;4989000;28;20680;-87
2023/06/27 00:31:31;;;;;;;4.53;2.35;;;20.30;19.10;;;;;;4983333;28;20243;-87
2023/06/27 00:33:58;;;;;;;5.60;2.10;;;20.20;19.00;;;;;;4981829;28;20200;-88
2023/06/27 00:36:24;;;;;;;4.90;2.08;;;20.10;19.30;;;;;;4988096;28;20207;-87
2023/06/27 00:38:52;;;;;;;5.47;2.20;;;20.10;19.10;;;;;;4982728;28;20717;-86
2023/06/27 00:41:20;;;;;;;6.78;2.00;;;20.10;19.40;;;;;;4979456;28;20267;-86
2023/06/27 00:43:47;;;;;;;4.18;2.50;;;20.10;19.10;;;;;;4986196;28;20236;-83
2023/06/27 00:46:20;;;;;;;3.53;2.22;;;20.10;19.20;;;;;;4981056;28;20197;-86
2023/06/27 00:48:47;;;;;;;9.85;2.20;;;20.00;19.20;;;;;;4976574;28;20646;-86
2023/06/27 00:51:14;;;;;;;4.45;2.20;;;19.90;19.40;;;;;;4979007;28;20204;-85
2023/06/27 00:53:41;;;;;;;3.22;2.20;;;19.90;20.20;;;;;;4981885;28;20200;-89
2023/06/27 00:56:08;;;;;;;4.35;2.25;;;19.90;19.80;;;;;;4982730;28;20636;-84
2023/06/27 00:58:37;;;;;;;3.42;2.28;;;19.80;20.10;;;;;;4988507;28;20766;-91
2023/06/27 01:01:04;;;;;;;4.90;2.20;;;19.90;20.20;;;;;;4978916;28;20227;-86
2023/06/27 01:03:32;;;;;;;7.63;2.38;;;19.80;20.10;;;;;;4984148;28;20217;-91
2023/06/27 01:06:02;;;;;;;4.85;2.30;;;19.80;20.10;;;;;;4978297;28;20653;-87
2023/06/27 01:08:35;;;;;;;6.05;2.42;;;19.70;20.30;;;;;;4989414;28;20212;-88
2023/06/27 01:11:09;;;;;;;3.28;2.25;;;19.80;21.80;;;;;;4989942;28;20196;-86
2023/06/27 01:13:42;;;;;;;5.07;2.35;;;19.70;21.20;;;;;;4993576;28;20679;-87
2023/06/27 01:16:10;;;;;;;6.03;2.47;;;19.60;22.20;;;;;;4991123;28;20202;-82
2023/06/27 01:18:40;;;;;;;8.15;2.30;;;19.60;21.80;;;;;;4985572;28;20249;-84
2023/06/27 01:21:08;;;;;;;5.80;2.30;;;19.50;21.90;;;;;;4986929;28;20200;-85
2023/06/27 01:23:48;;;;;;;4.80;2.22;;;19.50;22.20;;;;;;4984886;28;20255;-85
2023/06/27 01:26:16;;;;;;;3.10;2.00;;;19.50;22.10;;;;;;4991294;28;20207;-85
2023/06/27 01:28:43;;;;;;;5.78;2.58;;;19.50;22.20;;;;;;4981479;28;20208;-87
2023/06/27 01:31:15;;;;;;;3.58;2.28;;;19.50;22.50;;;;;;4989609;28;20192;-87
2023/06/27 01:33:47;;;;;;;6.15;2.30;;;19.40;22.90;;;;;;5002653;28;20568;-85
2023/06/27 01:36:20;;;;;;;3.70;2.05;;;19.40;23.20;;;;;;4984994;28;20196;-87
2023/06/27 01:38:54;;;;;;;3.83;2.10;;;19.40;23.80;;;;;;4984964;28;20260;-85
2023/06/27 01:41:24;;;;;;;3.17;2.17;;;19.40;22.10;;;;;;4999940;28;20212;-87
2023/06/27 01:43:55;;;;;;;4.22;2.20;;;19.40;22.40;;;;;;4990663;28;20231;-86
2023/06/27 01:46:23;;;;;;;3.88;2.17;;;19.40;23.20;;;;;;4985332;28;20216;-86
2023/06/27 01:48:51;;;;;;;4.32;1.92;;;19.40;22.60;;;;;;4990120;28;20210;-86
2023/06/27 01:51:18;;;;;;;3.78;2.00;;;19.30;23.30;;;;;;4984488;28;20231;-86
2023/06/27 01:53:45;;;;;;;6.10;2.60;;;19.30;23.80;;;;;;4999420;28;20211;-85
2023/06/27 01:56:14;;;;;;;3.88;2.00;;;19.30;24.50;;;;;;4985385;28;20216;-85
2023/06/27 01:58:41;;;;;;;6.00;2.10;;;19.20;23.50;;;;;;4977590;28;20219;-86
2023/06/27 02:01:09;;;;;;;4.30;2.22;;;19.20;23.50;;;;;;4989019;28;20200;-86
2023/06/27 02:03:36;;;;;;;7.53;2.58;;;19.20;24.10;;;;;;4974667;28;20228;-87
2023/06/27 02:06:03;;;;;;;8.00;2.30;;;19.20;25.10;;;;;;4989365;28;20197;-85
2023/06/27 02:08:30;;;;;;;7.38;2.25;;;19.10;24.20;;;;;;4978533;28;20211;-87
2023/06/27 02:10:57;;;;;;;6.38;2.20;;;19.10;23.90;;;;;;4994511;28;20207;-85
2023/06/27 02:13:26;;;;;;;6.78;2.13;;;19.10;24.40;;;;;;4982897;28;20209;-85
2023/06/27 02:15:53;;;;;;;3.83;1.77;;;19.00;24.20;;;;;;4981990;28;20203;-89
2023/06/27 02:18:19;;;;;;;5.60;2.30;;;19.00;24.60;;;;;;4990324;28;20224;-87
2023/06/27 02:20:46;;;;;;;5.10;2.47;;;19.00;25.20;;;;;;5001809;28;20196;-87
2023/06/27 02:23:13;;;;;;;5.28;2.03;;;19.00;25.80;;;;;;4979795;28;20692;-87
2023/06/27 02:25:43;;;;;;;6.45;2.50;;;18.90;24.40;;;;;;4987692;28;20200;-88
2023/06/27 02:28:10;;;;;;;9.75;2.40;;;18.90;24.60;;;;;;4989179;28;20196;-88
2023/06/27 02:30:38;;;;;;;6.60;2.08;;;19.00;26.30;;;;;;4968133;28;20207;-87
2023/06/27 02:33:05;;;;;;;10.95;2.30;;;19.00;25.00;;;;;;4978843;28;20237;-90
2023/06/27 02:35:32;;;;;;;5.13;1.90;;;18.90;24.80;;;;;;4984615;28;20262;-86
2023/06/27 02:37:59;;;;;;;4.40;2.42;;;18.90;25.20;;;;;;4988340;28;20208;-87
2023/06/27 02:40:28;;;;;;;6.07;2.25;;;18.90;26.20;;;;;;4993181;28;20204;-86
2023/06/27 02:42:55;;;;;;;3.72;2.08;;;18.90;25.60;;;;;;4973860;28;20208;-86
2023/06/27 02:45:23;;;;;;;6.40;2.30;;;18.90;26.40;;;;;;4993367;28;20233;-86
2023/06/27 02:47:52;;;;;;;3.75;2.30;;;18.90;26.50;;;;;;4994671;28;20203;-83
2023/06/27 02:50:18;;;;;;;4.50;2.17;;;18.90;26.90;;;;;;4983117;28;20621;-86
2023/06/27 02:52:45;;;;;;;6.30;2.20;;;18.80;25.70;;;;;;4995428;28;20223;-86
2023/06/27 02:55:12;;;;;;;7.43;2.15;;;18.80;26.90;;;;;;4991170;28;20220;-87
2023/06/27 02:57:39;;;;;;;5.47;2.30;;;18.70;26.00;;;;;;4993141;28;20207;-86
2023/06/27 03:00:07;;;;;;;6.07;2.10;;;18.80;25.60;;;;;;4994856;28;20212;-86
2023/06/27 03:02:34;;;;;;;7.60;2.28;;;18.70;26.60;;;;;;4983667;28;20684;-87
2023/06/27 03:05:03;;;;;;;7.22;2.33;;;18.70;26.40;;;;;;4981698;28;20231;-84
2023/06/27 03:07:30;;;;;;;7.57;2.40;;;18.80;26.60;;;;;;4985295;28;20291;-83
2023/06/27 03:09:56;;;;;;;5.15;2.13;;;18.80;25.10;;;;;;4985276;28;20207;-86
2023/06/27 03:12:23;;;;;;;6.53;2.53;;;18.80;26.00;;;;;;4991780;28;20299;-86
2023/06/27 03:14:50;;;;;;;6.07;2.50;;;18.80;24.80;;;;;;4983594;28;20312;-88
2023/06/27 03:17:17;;;;;;;6.47;2.40;;;18.80;25.70;;;;;;4991394;28;20543;-86
2023/06/27 03:19:44;;;;;;;4.55;2.10;;;18.70;26.10;;;;;;4982553;28;20230;-85
2023/06/27 03:22:12;;;;;;;7.53;2.55;;;18.70;25.40;;;;;;4994618;28;20201;-85
2023/06/27 03:24:39;;;;;;;3.50;1.98;;;18.70;25.00;;;;;;4989504;28;20222;-83
2023/06/27 03:27:07;;;;;;;3.70;2.15;;;18.70;25.90;;;;;;4995795;28;20199;-87
2023/06/27 03:29:34;;;;;;;3.38;1.80;;;18.70;25.50;;;;;;4984245;28;20206;-86
2023/06/27 03:32:01;;;;;;;4.15;2.30;;;18.70;25.20;;;;;;4997577;28;20653;-86
2023/06/27 03:34:28;;;;;;;5.38;2.05;;;18.70;25.10;;;;;;4983410;28;20201;-85
2023/06/27 03:36:54;;;;;;;8.70;2.55;;;18.80;24.60;;;;;;4988114;28;20206;-89
2023/06/27 03:39:23;;;;;;;7.03;2.40;;;18.70;24.70;;;;;;4988653;28;20203;-85
2023/06/27 03:41:49;;;;;;;7.30;2.28;;;18.80;24.80;;;;;;4992565;28;20206;-84
2023/06/27 03:44:16;;;;;;;6.60;2.53;;;18.80;26.00;;;;;;4990467;28;20927;-84
2023/06/27 03:46:43;;;;;;;5.47;2.00;;;18.70;26.20;;;;;;4976995;28;20197;-87
2023/06/27 03:49:10;;;;;;;6.88;2.35;;;18.60;26.60;;;;;;4987816;28;20216;-87
2023/06/27 03:51:40;;;;;;;5.30;2.10;;;18.60;25.30;;;;;;4992759;28;20276;-86
2023/06/27 03:54:09;;;;;;;3.47;2.38;;;18.60;26.20;;;;;;4986246;28;20235;-85
2023/06/27 03:56:37;;;;;;;5.63;1.98;;;18.60;26.70;;;;;;4985586;28;20206;-87
2023/06/27 03:59:04;;;;;;;4.28;2.17;;;18.60;26.10;;;;;;4983191;28;20203;-87
2023/06/27 04:01:31;;;;;;;8.15;2.20;;;18.80;24.70;;;;;;4966889;28;20654;-86
2023/06/27 04:03:58;;;;;;;5.95;2.17;;;18.70;26.00;;;;;;4974539;28;20207;-89
2023/06/27 04:06:25;;;;;;;9.57;2.42;;;18.60;25.60;;;;;;4987349;28;20210;-87
2023/06/27 04:08:51;;;;;;;6.68;2.17;;;18.60;25.40;;;;;;4983612;28;20208;-83
2023/06/27 04:11:18;;;;;;;4.82;2.30;;;18.70;24.90;;;;;;4979654;28;20201;-85
2023/06/27 04:13:47;;;;;;;6.00;2.20;;;18.60;25.70;;;;;;4979814;28;20202;-87
2023/06/27 04:16:14;;;;;;;4.75;2.03;;;18.60;25.10;;;;;;4981438;28;20193;-84
2023/06/27 04:18:41;;;;;;;6.00;2.33;;;18.60;25.00;;;;;;4989214;28;20215;-85
2023/06/27 04:21:08;;;;;;;5.68;2.63;;;18.60;25.40;;;;;;4980428;28;20200;-84
2023/06/27 04:23:35;;;;;;;5.00;1.98;;;18.60;25.90;;;;;;4991385;28;20204;-86
2023/06/27 04:26:04;;;;;;;6.65;1.92;;;18.50;24.90;;;;;;4981389;28;20228;-85
2023/06/27 04:28:32;;;;;;;5.03;2.20;;;18.50;25.40;;;;;;4990423;28;20197;-86
2023/06/27 04:31:02;;;;;;;6.55;2.08;;;18.40;25.50;;;;;;4965951;28;20849;-87
2023/06/27 04:36:10;;;;;;;11.82;2.45;;;18.30;26.40;;;;;;4983046;28;20196;-88
2023/06/27 04:38:38;;;;;;;4.72;1.90;;;18.40;26.10;;;;;;4987795;28;20686;-86
2023/06/27 04:41:05;;;;;;;8.05;2.05;;;18.50;25.40;;;;;;4984297;28;20204;-86
2023/06/27 04:43:33;;;;;;;4.10;2.00;;;18.60;24.80;;;;;;4980575;28;20204;-87
2023/06/27 04:46:01;;;;;;;5.55;2.25;;;18.50;26.60;;;;;;4984060;28;20664;-86
2023/06/27 04:48:29;;;;;;;4.97;2.20;;;18.60;26.60;;;;;;4989147;28;20211;-86
2023/06/27 04:50:56;;;;;;;6.38;2.20;;;18.60;25.80;;;;;;4994020;28;20248;-88
2023/06/27 04:53:23;;;;;;;4.78;1.65;;;18.70;25.20;;;;;;4984594;28;20205;-86
2023/06/27 04:55:51;;;;;;;7.50;2.10;;;18.70;25.10;;;;;;4991825;28;20211;-83
2023/06/27 04:58:18;;;;;;;6.63;2.72;;;18.80;25.70;;;;;;4991781;28;20202;-85
2023/06/27 05:00:47;;;;;;;4.05;2.13;;;18.80;24.70;;;;;;4993006;28;20196;-84
2023/06/27 05:03:15;;;;;;;56.20;50.38;;;18.80;24.50;;;;;;4985295;28;20212;-90
2023/06/27 05:05:43;;;;;;;6.03;2.72;;;18.80;24.60;;;;;;4985660;28;20300;-86
2023/06/27 05:08:11;;;;;;;10.02;2.47;;;18.80;24.50;;;;;;4990538;28;20216;-86
2023/06/27 05:10:38;;;;;;;3.53;2.03;;;18.80;25.10;;;;;;4990446;28;20292;-89
2023/06/27 05:13:05;;;;;;;4.97;1.90;;;18.70;25.40;;;;;;4980560;28;20568;-87
2023/06/27 05:15:32;;;;;;;3.95;2.33;;;18.70;25.60;;;;;;4992995;28;20227;-88
2023/06/27 05:18:25;;;;;;;4.60;2.20;;;18.70;25.20;;;;;;4996918;28;20227;-86
2023/06/27 05:20:53;;;;;;;33.15;25.92;;;18.60;26.10;;;;;;4985539;28;20201;-86
2023/06/27 05:23:21;;;;;;;7.85;3.08;;;18.60;25.60;;;;;;4985604;28;20204;-91
2023/06/27 05:25:48;;;;;;;6.63;2.20;;;18.60;25.80;;;;;;4991102;28;20228;-89
2023/06/27 05:28:15;;;;;;;9.82;2.50;;;18.60;25.90;;;;;;4983790;28;20610;-89
2023/06/27 05:30:42;;;;;;;4.90;2.30;;;18.60;25.80;;;;;;4986070;28;20583;-90
2023/06/27 05:33:09;;;;;;;4.00;2.20;;;18.60;26.40;;;;;;4989374;28;20580;-89
2023/06/27 05:35:37;;;;;;;8.50;2.30;;;18.60;26.20;;;;;;4983605;28;20684;-90
2023/06/27 05:38:04;;;;;;;4.45;2.20;;;18.50;26.60;;;;;;4989413;28;20204;-90
2023/06/27 05:40:31;;;;;;;6.70;2.33;;;18.50;28.70;;;;;;4991539;28;20579;-90
2023/06/27 05:42:58;;;;;;;10.60;2.45;;;18.50;27.60;;;;;;4991957;28;20212;-89
2023/06/27 05:45:25;;;;;;;3.97;2.45;;;18.60;26.50;;;;;;4991007;28;20224;-91
2023/06/27 05:47:52;;;;;;;5.30;2.35;;;18.70;25.80;;;;;;4981507;28;20197;-91
2023/06/27 05:50:19;;;;;;;4.72;2.13;;;18.70;25.90;;;;;;4984042;28;20204;-91
2023/06/27 05:52:48;;;;;;;6.53;2.20;;;18.70;25.80;;;;;;4979876;28;20200;-90
2023/06/27 05:55:15;;;;;;;10.57;2.53;;;18.80;26.10;;;;;;4982891;28;20211;-91
2023/06/27 05:57:42;;;;;;;7.15;2.28;;;18.70;27.40;;;;;;4989935;28;20200;-91
2023/06/27 06:00:13;;;;;;;7.93;2.30;;;18.70;26.00;;;;;;5001446;28;20200;-91
2023/06/27 06:02:42;;;;;;;6.10;2.40;;;18.50;26.70;;;;;;4978854;28;20824;-90
2023/06/27 06:05:10;;;;;;;4.53;2.25;;;18.60;27.40;;;;;;4982135;28;20415;-91
2023/06/27 06:07:38;;;;;;;8.68;2.38;;;18.70;26.70;;;;;;4997027;28;20215;-91
2023/06/27 06:10:08;;;;;;;6.95;2.25;;;18.80;26.60;;;;;;4985035;28;20200;-90
2023/06/27 06:12:35;;;;;;;7.57;2.50;;;18.80;26.40;;;;;;4991397;28;20200;-90
2023/06/27 06:15:02;;;;;;;5.32;2.20;;;18.90;26.50;;;;;;4990675;28;20203;-91
2023/06/27 06:17:29;;;;;;;4.80;2.20;;;19.00;25.80;;;;;;4991470;28;20216;-91
2023/06/27 06:19:56;;;;;;;5.43;1.92;;;19.00;25.90;;;;;;5000019;28;20200;-91
2023/06/27 06:22:22;;;;;;;4.88;2.25;;;19.10;25.40;;;;;;4990761;28;20207;-90
2023/06/27 06:24:50;;;;;;;8.38;2.58;;;19.10;25.40;;;;;;4986870;28;20219;-91
2023/06/27 06:27:18;;;;;;;6.43;2.47;;;19.00;24.30;;;;;;4985186;28;20200;-91
2023/06/27 06:29:45;;;;;;;8.82;2.50;;;19.00;25.90;;;;;;4986853;28;20211;-90
2023/06/27 06:32:12;;;;;;;8.18;2.20;;;19.10;25.70;;;;;;4978812;28;20323;-91
2023/06/27 06:34:40;;;;;;;6.10;2.33;;;18.90;26.30;;;;;;4984675;28;20204;-91
2023/06/27 06:37:07;;;;;;;5.82;2.25;;;18.80;26.60;;;;;;4989709;28;20200;-90
2023/06/27 06:39:34;;;;;;;6.75;2.53;;;18.60;28.90;;;;;;4988693;28;22167;-90
2023/06/27 06:42:01;;;;;;;6.03;2.33;;;18.60;30.50;;;;;;4991612;28;20207;-90
2023/06/27 06:44:30;;;;;;;8.45;2.22;;;18.50;29.70;;;;;;4989273;28;20259;-91
2023/06/27 06:46:57;;;;;;;5.43;2.50;;;18.50;28.10;;;;;;4986458;28;20227;-91
2023/06/27 06:49:24;;;;;;;8.10;2.00;;;18.60;27.70;;;;;;4985505;28;20220;-91
2023/06/27 06:51:50;;;;;;;6.63;2.28;;;18.80;27.00;;;;;;4980482;28;20205;-91
2023/06/27 06:54:19;;;;;;;11.77;2.33;;;18.90;27.60;;;;;;4987984;28;20211;-91
2023/06/27 06:56:45;;;;;;;6.75;2.78;;;18.90;27.00;;;;;;4985463;28;20200;-90
2023/06/27 06:59:12;;;;;;;7.25;3.15;;;18.90;27.20;;;;;;4990036;28;20207;-91
2023/06/27 07:01:41;;;;;;;12.38;7.15;;;18.90;26.90;;;;;;4985407;28;20200;-91
2023/06/27 07:04:08;;;;;;;9.60;3.30;;;18.90;27.00;;;;;;4987633;28;20285;-91
2023/06/27 07:06:35;;;;;;;17.52;12.00;;;19.00;26.40;;;;;;4991740;28;20244;-90
2023/06/27 07:09:02;;;;;;;4.05;2.63;;;19.00;27.60;;;;;;4998623;28;20211;-91
2023/06/27 07:11:29;;;;;;;12.43;7.18;;;18.90;26.40;;;;;;4999573;28;20203;-91
2023/06/27 07:13:56;;;;;;;6.50;2.25;;;19.00;26.90;;;;;;4985942;28;20676;-91
2023/06/27 07:16:22;;;;;;;7.25;3.30;;;19.00;25.70;;;;;;4978262;28;20219;-91
2023/06/27 07:18:51;;;;;;;5.85;2.50;;;19.00;25.20;;;;;;4993654;28;20228;-92
2023/06/27 07:21:18;;;;;;;9.07;2.83;;;19.10;26.00;;;;;;4977482;28;20224;-91
2023/06/27 07:23:45;;;;;;;5.55;2.88;;;19.10;25.40;;;;;;4988923;28;20219;-91
2023/06/27 07:26:11;;;;;;;102.55;38.70;;;19.10;25.00;;;;;;4983982;28;20220;-91
2023/06/27 07:28:38;;;;;;;36.17;15.07;;;19.20;26.10;;;;;;4982380;28;20208;-91
2023/06/27 07:31:05;;;;;;;188.30;72.40;;;19.40;24.80;;;;;;4990376;28;20840;-89
2023/06/27 07:33:32;;;;;;;45.65;19.80;;;19.50;25.80;;;;;;4993077;28;20204;-88
2023/06/27 07:36:00;;;;;;;12.82;5.60;;;19.60;24.70;;;;;;4990871;28;20207;-89
2023/06/27 07:38:27;;;;;;;58.67;29.17;;;19.80;23.80;;;;;;4986951;28;20196;-89
2023/06/27 07:40:54;;;;;;;4.07;2.40;;;20.10;24.10;;;;;;4983995;28;20279;-89
2023/06/27 07:43:21;;;;;;;25.95;12.15;;;20.10;22.70;;;;;;4991706;28;20254;-89
2023/06/27 07:45:48;;;;;;;8.60;3.45;;;20.00;23.50;;;;;;4986942;28;20716;-89
2023/06/27 07:48:16;;;;;;;16.02;7.18;;;20.10;23.60;;;;;;4988545;28;20211;-88
2023/06/27 07:50:43;;;;;;;11.60;6.35;;;20.30;22.70;;;;;;4987060;28;20211;-89
2023/06/27 07:53:11;;;;;;;8.85;2.90;;;20.20;21.80;;;;;;4992412;28;20200;-88
2023/06/27 07:55:38;;;;;;;5.20;2.78;;;20.00;22.60;;;;;;4990272;28;20208;-88
2023/06/27 07:58:05;;;;;;;5.63;2.40;;;20.00;23.20;;;;;;4990168;28;20201;-90
2023/06/27 08:00:32;;;;;;;7.55;2.72;;;20.10;23.30;;;;;;4987861;28;20203;-88
2023/06/27 08:02:58;;;;;;;8.52;3.67;;;20.10;22.70;;;;;;4995427;28;20222;-89
2023/06/27 08:05:27;;;;;;;4.03;2.33;;;20.60;22.20;;;;;;4994983;28;20230;-88
2023/06/27 08:07:54;;;;;;;6.32;2.50;;;21.00;21.00;;;;;;4995525;28;20211;-89
2023/06/27 08:13:03;;;;;;;9.85;2.78;;;21.30;19.60;;;;;;4984119;28;20211;-89
2023/06/27 08:15:30;;;;;;;7.35;2.63;;;21.60;19.10;;;;;;4982905;28;20207;-90
2023/06/27 08:17:58;;;;;;;6.13;2.88;;;22.00;17.80;;;;;;5029876;23;20269;-90
2023/06/27 08:20:25;;;;;;;5.60;2.33;;;22.10;17.20;;;;;;5015162;28;20561;-90
2023/06/27 08:22:52;;;;;;;10.57;2.67;;;22.40;17.40;;;;;;5019075;28;20199;-89
2023/06/27 08:25:19;;;;;;;3.75;2.40;;;22.80;16.50;;;;;;5016184;28;20203;-89
2023/06/27 08:27:47;;;;;;;9.15;2.80;;;23.30;15.60;;;;;;5029473;28;20261;-88
2023/06/27 08:30:14;;;;;;;4.57;2.90;;;24.30;14.20;;;;;;5025168;28;20194;-87
2023/06/27 08:32:41;;;;;;;6.72;2.35;;;25.40;12.70;;;;;;5029837;28;20201;-88
2023/06/27 08:35:09;;;;;;;6.32;2.60;;;25.60;11.60;;;;;;5023879;28;20926;-89
2023/06/27 08:37:36;;;;;;;4.32;2.50;;;25.20;12.60;;;;;;5030051;28;20201;-90
2023/06/27 08:40:03;;;;;;;8.60;2.40;;;24.60;12.70;;;;;;5023397;28;20199;-89
2023/06/27 08:42:32;;;;;;;4.43;2.30;;;24.40;13.80;;;;;;5038825;28;20202;-89
2023/06/27 08:45:00;;;;;;;7.40;2.88;;;23.80;13.40;;;;;;5028643;28;20198;-85
2023/06/27 08:47:30;;;;;;;4.28;2.35;;;23.40;13.80;;;;;;5021826;28;20237;-85
2023/06/27 08:50:03;;;;;;;5.43;2.50;;;23.10;13.00;;;;;;5033029;28;20203;-87
2023/06/27 08:52:33;;;;;;;7.63;2.40;;;23.30;14.00;;;;;;5032122;28;20206;-88
2023/06/27 08:55:00;;;;;;;4.28;2.17;;;23.50;13.20;;;;;;5028715;28;20589;-86
2023/06/27 08:57:32;;;;;;;7.15;2.35;;;23.80;13.40;;;;;;5025289;28;20561;-87
2023/06/27 09:00:09;;;;;;;6.28;2.25;;;24.00;13.50;;;;;;5031572;28;20204;-88
2023/06/27 09:02:37;;;;;;;5.05;2.20;;;24.10;12.70;;;;;;5026601;28;20222;-88
2023/06/27 09:05:05;;;;;;;3.15;2.20;;;24.50;11.60;;;;;;5035880;28;20651;-88
2023/06/27 09:07:33;;;;;;;5.90;2.30;;;24.70;12.20;;;;;;5033368;28;20225;-89
2023/06/27 09:10:00;;;;;;;6.70;2.72;;;24.80;11.20;;;;;;5022255;28;20233;-89
2023/06/27 09:17:53;;;;;;;3.70;2.30;;;25.10;8.80;;;;;;5099425;22;20234;-91
2023/06/27 09:23:05;;;;;;;8.07;2.30;;;26.10;8.20;;;;;;5029617;28;20202;-88
2023/06/27 09:25:32;;;;;;;6.18;2.33;;;26.80;6.70;;;;;;5034875;28;20232;-89
2023/06/27 09:37:40;;;;;;;8.05;2.85;;;26.90;5.80;;;;;;5026896;28;20729;-92
2023/06/27 09:43:00;;;;;;;5.50;2.50;;;25.60;11.20;;;;;;5034562;28;20674;-88
2023/06/27 09:45:57;;;;;;;5.47;2.40;;;25.30;11.00;;;;;;5014670;28;20257;-91
2023/06/27 09:48:25;;;;;;;6.10;2.80;;;25.50;9.60;;;;;;5024727;28;20201;-91
2023/06/27 10:09:47;;;;;;;5.82;2.70;;;26.40;8.50;;;;;;5047336;28;20202;-90
2023/06/27 10:15:17;;;;;;;3.65;2.53;;;25.40;9.90;;;;;;5949122;22;20217;-92
2023/06/27 10:17:46;;;;;;;6.95;2.60;;;25.20;9.70;;;;;;5073445;28;20214;-93
2023/06/27 10:20:18;;;;;;;5.03;2.60;;;25.10;9.10;;;;;;5032909;28;20225;-92
2023/06/27 10:26:21;;;;;;;7.45;2.50;;;25.80;7.80;;;;;;5016606;28;20244;-90
2023/06/27 10:37:43;;;;;;;6.10;2.38;;;27.40;5.70;;;;;;5012692;28;20234;-91
2023/06/27 10:46:45;;;;;;;3.60;2.35;;;27.30;7.50;;;;;;4972073;28;20263;-87
2023/06/27 10:59:10;;;;;;;5.88;2.42;;;26.30;8.90;;;;;;5057159;28;20173;-89
2023/06/27 11:02:01;;;;;;;7.25;2.88;;;25.10;11.20;;;;;;5011687;28;20222;-91
2023/06/27 11:23:29;;;;;;;7.40;2.70;;;25.50;9.70;;;;;;5039845;28;20173;-90
2023/06/27 11:25:56;;;;;;;7.95;2.60;;;25.60;11.20;;;;;;5047673;28;20202;-89
2023/06/27 11:54:02;;;;;;;5.28;2.90;;;25.00;11.30;;;;;;5040228;28;20205;-87
2023/06/27 11:57:03;;;;;;;29.77;22.05;;;24.80;12.40;;;;;;5023054;28;20214;-90
2023/06/27 12:31:44;;;;;;;9.25;2.92;;;24.80;11.50;;;;;;5033164;28;20421;-91
2023/06/27 12:41:39;;;;;;;5.78;2.42;;;24.90;12.10;;;;;;5043952;28;20174;-92
2023/06/27 12:44:13;;;;;;;6.22;2.55;;;24.60;12.90;;;;;;5049861;28;20186;-91
2023/06/27 13:03:06;;;;;;;4.72;2.53;;;24.50;12.80;;;;;;4999574;28;20791;-88
2023/06/27 13:05:33;;;;;;;5.68;2.47;;;24.30;13.70;;;;;;5036356;28;20223;-88
2023/06/27 13:08:00;;;;;;;4.75;2.67;;;24.40;12.30;;;;;;5040006;28;20211;-86
2023/06/27 13:10:27;;;;;;;5.90;2.60;;;24.40;13.80;;;;;;5039856;28;20198;-89
2023/06/27 13:12:54;;;;;;;5.75;2.60;;;24.30;13.10;;;;;;5035670;28;20198;-89
2023/06/27 13:29:11;;;;;;;7.00;2.63;;;24.20;13.70;;;;;;5255052;23;20242;-90
2023/06/27 13:32:15;;;;;;;8.82;2.67;;;24.20;13.70;;;;;;5049454;28;20289;-89
2023/06/27 13:34:42;;;;;;;7.47;2.70;;;24.40;13.80;;;;;;5046483;28;20229;-88
2023/06/27 13:37:16;;;;;;;4.63;2.60;;;24.50;13.90;;;;;;5037889;28;20197;-90
2023/06/27 13:39:43;;;;;;;5.93;4.00;;;24.50;13.90;;;;;;5033068;28;20720;-90
2023/06/27 13:42:37;;;;;;;6.18;4.68;;;24.60;12.10;;;;;;5046389;28;20193;-90
2023/06/27 14:02:12;;;;;;;12.05;3.42;;;24.20;13.70;;;;;;5106443;23;20289;-91
2023/06/27 14:07:15;;;;;;;7.90;3.30;;;24.40;12.80;;;;;;5082943;23;20257;-89
2023/06/27 14:30:09;;;;;;;5.65;2.67;;;24.40;13.80;;;;;;5740828;23;20235;-91
2023/06/27 14:32:36;;;;;;;6.13;2.50;;;24.10;13.60;;;;;;5048014;28;20201;-90
2023/06/27 14:35:03;;;;;;;6.18;2.72;;;24.20;13.70;;;;;;5029130;28;20561;-91
2023/06/27 14:37:30;;;;;;;7.18;2.67;;;24.10;13.70;;;;;;5020963;28;20210;-90
2023/06/27 14:39:57;;;;;;;6.63;2.85;;;23.70;13.30;;;;;;5030773;28;20199;-91
2023/06/27 15:01:58;;;;;;;9.05;2.53;;;23.90;13.50;;;;;;5169875;22;20243;-90
2023/06/27 15:09:36;;;;;;;4.22;2.70;;;23.70;13.30;;;;;;5172049;22;20268;-89
2023/06/27 15:12:10;;;;;;;6.40;2.95;;;23.70;13.30;;;;;;5004749;28;20656;-89
2023/06/27 15:30:18;;;;;;;4.90;2.40;;;23.50;13.50;;;;;;5025060;28;20263;-90
2023/06/27 15:33:24;;;;;;;4.85;2.30;;;23.70;13.40;;;;;;5022911;28;20202;-89
2023/06/27 15:38:32;;;;;;;7.72;2.55;;;23.60;13.30;;;;;;4994983;28;20207;-88
2023/06/27 15:44:28;;;;;;;4.65;2.25;;;23.10;13.00;;;;;;5022428;28;20186;-89
2023/06/27 15:46:55;;;;;;;7.68;2.67;;;23.10;13.00;;;;;;5007361;28;20298;-89
2023/06/27 15:49:22;;;;;;;5.88;2.63;;;23.10;13.00;;;;;;4993905;28;20188;-87
2023/06/27 15:58:41;;;;;;;5.63;3.30;;;23.20;13.30;;;;;;5003089;28;20290;-89
2023/06/27 16:01:10;;;;;;;5.88;2.78;;;23.20;13.00;;;;;;4989364;28;20235;-91
2023/06/27 16:03:37;;;;;;;5.70;2.97;;;23.20;13.20;;;;;;4964719;28;20208;-88
2023/06/27 16:06:04;;;;;;;4.93;3.00;;;22.90;12.90;;;;;;4989174;28;20658;-91
2023/06/27 16:08:31;;;;;;;9.63;3.75;;;22.80;14.30;;;;;;4987582;28;20785;-90
2023/06/27 16:10:58;;;;;;;11.15;3.13;;;22.60;14.90;;;;;;4979212;28;20205;-89
2023/06/27 16:13:25;;;;;;;6.47;5.15;;;22.90;14.50;;;;;;4977809;28;20204;-90
2023/06/27 16:15:52;;;;;;;4.05;2.40;;;23.10;14.50;;;;;;4986610;28;20196;-89
2023/06/27 16:18:21;;;;;;;6.03;2.50;;;23.20;13.10;;;;;;5002189;28;20214;-90
2023/06/27 16:20:50;;;;;;;42.88;38.30;;;23.20;13.00;;;;;;5004039;28;20295;-85
2023/06/27 16:23:17;;;;;;;6.45;3.30;;;23.10;13.80;;;;;;5008682;28;20208;-87
2023/06/27 16:25:44;;;;;;;5.53;4.03;;;23.10;13.00;;;;;;5001431;28;20196;-90
2023/06/27 16:28:11;;;;;;;6.60;3.13;;;23.10;13.00;;;;;;5008482;28;20239;-93
2023/06/27 16:30:41;;;;;;;6.63;2.78;;;23.00;14.20;;;;;;5013976;28;20217;-90
2023/06/27 16:33:08;;;;;;;8.23;3.60;;;22.80;14.70;;;;;;5016788;28;20199;-90
2023/06/27 16:35:36;;;;;;;4.15;2.88;;;22.60;14.30;;;;;;5015714;28;20202;-91
2023/06/27 16:38:04;;;;;;;5.00;3.10;;;22.50;13.80;;;;;;5012243;28;20644;-91
2023/06/27 16:40:32;;;;;;;6.78;3.03;;;22.30;14.80;;;;;;5009140;28;20203;-89
2023/06/27 16:42:59;;;;;;;5.93;2.60;;;22.20;15.20;;;;;;5015427;28;20322;-91
2023/06/27 16:45:25;;;;;;;9.00;2.80;;;22.10;15.10;;;;;;5007292;28;20200;-90
2023/06/27 16:47:52;;;;;;;8.90;2.75;;;22.10;15.60;;;;;;4989483;28;20219;-91
2023/06/27 16:50:19;;;;;;;6.45;2.88;;;22.20;14.70;;;;;;5012714;28;20206;-91
2023/06/27 16:52:48;;;;;;;4.93;2.50;;;22.10;15.20;;;;;;5004117;28;20291;-88
2023/06/27 16:55:15;;;;;;;5.00;2.50;;;22.00;16.40;;;;;;5005076;28;20203;-89
2023/06/27 16:57:43;;;;;;;4.63;2.60;;;21.90;15.40;;;;;;4990271;28;20195;-87
2023/06/27 17:00:12;;;;;;;7.03;2.58;;;21.90;15.30;;;;;;4978323;28;20202;-88
2023/06/27 17:02:39;;;;;;;6.78;2.33;;;21.90;15.40;;;;;;5008946;28;20635;-84
2023/06/27 17:05:07;;;;;;;6.63;2.65;;;21.90;15.70;;;;;;5010276;28;20196;-87
2023/06/27 17:07:33;;;;;;;6.10;2.85;;;21.90;15.70;;;;;;5008856;28;20223;-91
2023/06/27 17:10:02;;;;;;;5.93;2.78;;;21.90;15.60;;;;;;5012315;28;20214;-86
2023/06/27 17:12:29;;;;;;;3.70;2.38;;;21.90;16.20;;;;;;4971784;28;20343;-86
2023/06/27 17:14:56;;;;;;;6.53;2.45;;;21.80;15.90;;;;;;4990631;28;20202;-92
2023/06/27 17:17:23;;;;;;;6.63;2.70;;;21.70;16.40;;;;;;5013797;28;20211;-91
2023/06/27 17:19:50;;;;;;;5.82;2.50;;;21.70;16.70;;;;;;4981324;28;20211;-89
2023/06/27 17:22:17;;;;;;;3.60;2.67;;;21.70;16.80;;;;;;5009889;28;20667;-86
2023/06/27 17:24:45;;;;;;;4.55;2.47;;;21.60;15.90;;;;;;5004841;28;20570;-92
2023/06/27 17:27:14;;;;;;;7.45;3.00;;;21.60;16.30;;;;;;5014564;28;20215;-92
2023/06/27 17:29:41;;;;;;;8.82;2.80;;;21.60;17.40;;;;;;5011612;28;20246;-91
2023/06/27 17:32:08;;;;;;;7.32;2.78;;;21.70;15.70;;;;;;5001546;28;20228;-89
2023/06/27 17:34:35;;;;;;;6.53;2.78;;;21.80;16.10;;;;;;4999507;28;20195;-90
2023/06/27 17:37:02;;;;;;;6.13;3.08;;;21.70;16.10;;;;;;5002498;28;20195;-87